Urb San Felipe, Puerto Rico
Current Conditions -  °F | °C
As of 5:50 AM on Saturday 20 Dec 2014 (Local Time) from TJBQ Reporting Station
Clear Clear  
Wind Chill: 70°   Ceiling: Unl
Heat Index: 70°   Visibility: 10mi
Dew Point: 66°   Wind: 7mph
Humidity: 88%   Direction: 120°ESE
Pressure: 29.98"   Gusts: NA
Location:  18.4739°N, 66.7295°W
Report Text: TJBQ 200950Z 12006KT 10SM SKC 21/19 A2998 RMK RWY08 ATIS F
Loading
Personal Weather Stations






























Interactive Weather Map New forecast layout! Learn more

10-Day Weather Forecast

Advertisements
Track Severe Weather on mobile